sensor_id;sensor_type;location;lat;lon;timestamp;P1;durP1;ratioP1;P2;durP2;ratioP2
14094;SDS011;18096;48.142;16.290;2023-07-20T00:01:22;8.20;;;2.83;;
14094;SDS011;18096;48.142;16.290;2023-07-20T00:03:48;3.88;;;2.60;;
14094;SDS011;18096;48.142;16.290;2023-07-20T00:06:19;3.83;;;2.70;;
14094;SDS011;18096;48.142;16.290;2023-07-20T00:08:45;4.90;;;2.60;;
14094;SDS011;18096;48.142;16.290;2023-07-20T00:11:11;3.83;;;2.58;;
14094;SDS011;18096;48.142;16.290;2023-07-20T00:13:38;4.05;;;3.10;;
14094;SDS011;18096;48.142;16.290;2023-07-20T00:16:04;4.22;;;2.97;;
14094;SDS011;18096;48.142;16.290;2023-07-20T00:18:30;2.90;;;2.60;;
14094;SDS011;18096;48.142;16.290;2023-07-20T00:20:56;2.95;;;2.70;;
14094;SDS011;18096;48.142;16.290;2023-07-20T00:23:21;3.03;;;2.72;;
14094;SDS011;18096;48.142;16.290;2023-07-20T00:25:48;2.73;;;2.53;;
14094;SDS011;18096;48.142;16.290;2023-07-20T00:28:14;4.93;;;3.20;;
14094;SDS011;18096;48.142;16.290;2023-07-20T00:30:39;3.33;;;2.60;;
14094;SDS011;18096;48.142;16.290;2023-07-20T00:33:06;3.75;;;2.50;;
14094;SDS011;18096;48.142;16.290;2023-07-20T00:35:35;3.58;;;2.90;;
14094;SDS011;18096;48.142;16.290;2023-07-20T00:38:01;3.40;;;3.03;;
14094;SDS011;18096;48.142;16.290;2023-07-20T00:40:27;2.90;;;2.60;;
14094;SDS011;18096;48.142;16.290;2023-07-20T00:42:53;3.40;;;3.10;;
14094;SDS011;18096;48.142;16.290;2023-07-20T00:45:18;6.90;;;3.50;;
14094;SDS011;18096;48.142;16.290;2023-07-20T00:47:44;4.22;;;3.30;;
14094;SDS011;18096;48.142;16.290;2023-07-20T00:50:10;5.50;;;2.80;;
14094;SDS011;18096;48.142;16.290;2023-07-20T00:52:35;4.60;;;2.90;;
14094;SDS011;18096;48.142;16.290;2023-07-20T00:55:06;3.47;;;2.80;;
14094;SDS011;18096;48.142;16.290;2023-07-20T00:57:34;4.60;;;3.30;;
14094;SDS011;18096;48.142;16.290;2023-07-20T00:59:59;3.30;;;3.03;;
14094;SDS011;18096;48.142;16.290;2023-07-20T01:02:25;6.20;;;3.13;;
14094;SDS011;18096;48.142;16.290;2023-07-20T01:04:51;3.70;;;3.22;;
14094;SDS011;18096;48.142;16.290;2023-07-20T01:07:40;5.60;;;3.20;;
14094;SDS011;18096;48.142;16.290;2023-07-20T01:10:43;4.65;;;3.40;;
14094;SDS011;18096;48.142;16.290;2023-07-20T01:13:00;6.15;;;3.05;;
14094;SDS011;18096;48.142;16.290;2023-07-20T01:15:28;3.58;;;2.83;;
14094;SDS011;18096;48.142;16.290;2023-07-20T01:17:54;3.40;;;2.90;;
14094;SDS011;18096;48.142;16.290;2023-07-20T01:20:20;3.22;;;2.83;;
14094;SDS011;18096;48.142;16.290;2023-07-20T01:28:49;2.95;;;2.65;;
14094;SDS011;18096;48.142;16.290;2023-07-20T01:31:27;4.13;;;3.13;;
14094;SDS011;18096;48.142;16.290;2023-07-20T01:33:56;4.35;;;2.85;;
14094;SDS011;18096;48.142;16.290;2023-07-20T01:36:26;6.70;;;2.75;;
14094;SDS011;18096;48.142;16.290;2023-07-20T01:38:55;3.22;;;2.90;;
14094;SDS011;18096;48.142;16.290;2023-07-20T01:41:21;4.00;;;2.83;;
14094;SDS011;18096;48.142;16.290;2023-07-20T01:43:47;7.85;;;3.00;;
14094;SDS011;18096;48.142;16.290;2023-07-20T01:46:13;3.10;;;2.60;;
14094;SDS011;18096;48.142;16.290;2023-07-20T01:48:39;3.22;;;2.40;;
14094;SDS011;18096;48.142;16.290;2023-07-20T01:51:04;3.60;;;3.07;;
14094;SDS011;18096;48.142;16.290;2023-07-20T01:53:30;3.30;;;3.00;;
14094;SDS011;18096;48.142;16.290;2023-07-20T01:55:57;4.75;;;3.00;;
14094;SDS011;18096;48.142;16.290;2023-07-20T01:58:22;3.60;;;2.50;;
14094;SDS011;18096;48.142;16.290;2023-07-20T02:00:49;6.80;;;3.30;;
14094;SDS011;18096;48.142;16.290;2023-07-20T02:03:15;4.20;;;2.70;;
14094;SDS011;18096;48.142;16.290;2023-07-20T02:05:44;6.45;;;2.80;;
14094;SDS011;18096;48.142;16.290;2023-07-20T02:08:10;3.00;;;2.60;;
14094;SDS011;18096;48.142;16.290;2023-07-20T02:10:35;7.15;;;3.30;;
14094;SDS011;18096;48.142;16.290;2023-07-20T02:13:01;2.60;;;2.40;;
14094;SDS011;18096;48.142;16.290;2023-07-20T02:15:27;2.40;;;2.20;;
14094;SDS011;18096;48.142;16.290;2023-07-20T02:17:53;3.40;;;2.80;;
14094;SDS011;18096;48.142;16.290;2023-07-20T02:20:19;9.20;;;3.08;;
14094;SDS011;18096;48.142;16.290;2023-07-20T02:22:45;4.80;;;2.90;;
14094;SDS011;18096;48.142;16.290;2023-07-20T02:25:11;6.68;;;3.30;;
14094;SDS011;18096;48.142;16.290;2023-07-20T02:27:37;4.43;;;3.20;;
14094;SDS011;18096;48.142;16.290;2023-07-20T02:30:04;6.30;;;2.60;;
14094;SDS011;18096;48.142;16.290;2023-07-20T02:32:30;3.55;;;2.97;;
14094;SDS011;18096;48.142;16.290;2023-07-20T02:34:56;3.67;;;2.90;;
14094;SDS011;18096;48.142;16.290;2023-07-20T02:37:22;3.30;;;2.60;;
14094;SDS011;18096;48.142;16.290;2023-07-20T02:39:48;4.60;;;3.30;;
14094;SDS011;18096;48.142;16.290;2023-07-20T02:42:14;3.00;;;2.80;;
14094;SDS011;18096;48.142;16.290;2023-07-20T02:44:39;5.75;;;3.15;;
14094;SDS011;18096;48.142;16.290;2023-07-20T02:47:05;3.50;;;3.20;;
14094;SDS011;18096;48.142;16.290;2023-07-20T02:49:31;8.95;;;3.50;;
14094;SDS011;18096;48.142;16.290;2023-07-20T02:51:56;2.60;;;2.40;;
14094;SDS011;18096;48.142;16.290;2023-07-20T02:54:22;7.35;;;3.38;;
14094;SDS011;18096;48.142;16.290;2023-07-20T02:56:48;3.00;;;2.67;;
14094;SDS011;18096;48.142;16.290;2023-07-20T02:59:13;2.57;;;2.30;;
14094;SDS011;18096;48.142;16.290;2023-07-20T03:01:39;3.30;;;2.95;;
14094;SDS011;18096;48.142;16.290;2023-07-20T03:04:07;5.83;;;3.10;;
14094;SDS011;18096;48.142;16.290;2023-07-20T03:06:35;6.75;;;3.00;;
14094;SDS011;18096;48.142;16.290;2023-07-20T03:09:01;3.08;;;2.83;;
14094;SDS011;18096;48.142;16.290;2023-07-20T03:11:27;3.03;;;2.70;;
14094;SDS011;18096;48.142;16.290;2023-07-20T03:13:53;8.43;;;3.10;;
14094;SDS011;18096;48.142;16.290;2023-07-20T03:16:19;4.60;;;2.80;;
14094;SDS011;18096;48.142;16.290;2023-07-20T03:18:45;7.53;;;3.10;;
14094;SDS011;18096;48.142;16.290;2023-07-20T03:21:11;14.87;;;2.90;;
14094;SDS011;18096;48.142;16.290;2023-07-20T03:23:37;4.53;;;2.92;;
14094;SDS011;18096;48.142;16.290;2023-07-20T03:26:03;2.97;;;2.78;;
14094;SDS011;18096;48.142;16.290;2023-07-20T03:28:29;4.57;;;3.42;;
14094;SDS011;18096;48.142;16.290;2023-07-20T03:30:55;2.70;;;2.50;;
14094;SDS011;18096;48.142;16.290;2023-07-20T03:33:25;2.85;;;2.67;;
14094;SDS011;18096;48.142;16.290;2023-07-20T03:35:52;2.70;;;2.50;;
14094;SDS011;18096;48.142;16.290;2023-07-20T03:38:19;2.88;;;2.58;;
14094;SDS011;18096;48.142;16.290;2023-07-20T03:40:49;4.50;;;2.38;;
14094;SDS011;18096;48.142;16.290;2023-07-20T03:43:18;4.32;;;3.10;;
14094;SDS011;18096;48.142;16.290;2023-07-20T03:45:44;3.10;;;2.80;;
14094;SDS011;18096;48.142;16.290;2023-07-20T03:48:13;5.15;;;2.60;;
14094;SDS011;18096;48.142;16.290;2023-07-20T03:50:46;6.93;;;2.50;;
14094;SDS011;18096;48.142;16.290;2023-07-20T03:53:14;3.60;;;2.80;;
14094;SDS011;18096;48.142;16.290;2023-07-20T03:55:40;2.60;;;2.28;;
14094;SDS011;18096;48.142;16.290;2023-07-20T03:58:07;2.72;;;2.50;;
14094;SDS011;18096;48.142;16.290;2023-07-20T04:00:33;4.43;;;2.38;;
14094;SDS011;18096;48.142;16.290;2023-07-20T04:02:59;5.72;;;3.00;;
14094;SDS011;18096;48.142;16.290;2023-07-20T04:05:25;4.20;;;2.40;;
14094;SDS011;18096;48.142;16.290;2023-07-20T04:07:51;5.00;;;3.10;;
14094;SDS011;18096;48.142;16.290;2023-07-20T04:10:17;4.85;;;2.95;;
14094;SDS011;18096;48.142;16.290;2023-07-20T04:12:44;2.95;;;2.60;;
14094;SDS011;18096;48.142;16.290;2023-07-20T04:15:12;6.18;;;3.10;;
14094;SDS011;18096;48.142;16.290;2023-07-20T04:17:38;3.80;;;2.65;;
14094;SDS011;18096;48.142;16.290;2023-07-20T04:20:04;2.97;;;2.70;;
14094;SDS011;18096;48.142;16.290;2023-07-20T04:22:31;2.78;;;2.58;;
14094;SDS011;18096;48.142;16.290;2023-07-20T04:24:56;3.20;;;2.90;;
14094;SDS011;18096;48.142;16.290;2023-07-20T04:27:22;3.47;;;2.60;;
14094;SDS011;18096;48.142;16.290;2023-07-20T04:29:48;7.20;;;2.60;;
14094;SDS011;18096;48.142;16.290;2023-07-20T04:32:13;3.67;;;2.70;;
14094;SDS011;18096;48.142;16.290;2023-07-20T04:34:39;4.13;;;2.60;;
14094;SDS011;18096;48.142;16.290;2023-07-20T04:37:05;3.90;;;2.50;;
14094;SDS011;18096;48.142;16.290;2023-07-20T04:39:30;3.60;;;2.70;;
14094;SDS011;18096;48.142;16.290;2023-07-20T04:41:56;2.63;;;2.43;;
14094;SDS011;18096;48.142;16.290;2023-07-20T04:44:22;7.30;;;2.70;;
14094;SDS011;18096;48.142;16.290;2023-07-20T04:46:48;3.95;;;2.42;;
14094;SDS011;18096;48.142;16.290;2023-07-20T04:49:14;2.90;;;2.40;;
14094;SDS011;18096;48.142;16.290;2023-07-20T04:51:40;7.53;;;2.95;;
14094;SDS011;18096;48.142;16.290;2023-07-20T04:54:05;4.83;;;3.00;;
14094;SDS011;18096;48.142;16.290;2023-07-20T04:56:31;5.53;;;2.50;;
14094;SDS011;18096;48.142;16.290;2023-07-20T04:58:56;3.77;;;3.00;;
14094;SDS011;18096;48.142;16.290;2023-07-20T05:01:22;3.60;;;3.30;;
14094;SDS011;18096;48.142;16.290;2023-07-20T05:03:48;3.35;;;2.60;;
14094;SDS011;18096;48.142;16.290;2023-07-20T05:06:14;2.90;;;2.60;;
14094;SDS011;18096;48.142;16.290;2023-07-20T05:08:40;4.50;;;2.60;;
14094;SDS011;18096;48.142;16.290;2023-07-20T05:11:06;4.40;;;2.60;;
14094;SDS011;18096;48.142;16.290;2023-07-20T05:13:32;6.17;;;3.47;;
14094;SDS011;18096;48.142;16.290;2023-07-20T05:15:58;2.88;;;2.60;;
14094;SDS011;18096;48.142;16.290;2023-07-20T05:18:24;9.10;;;3.10;;
14094;SDS011;18096;48.142;16.290;2023-07-20T05:20:50;3.58;;;2.50;;
14094;SDS011;18096;48.142;16.290;2023-07-20T05:23:19;5.50;;;3.00;;
14094;SDS011;18096;48.142;16.290;2023-07-20T05:25:45;4.10;;;2.90;;
14094;SDS011;18096;48.142;16.290;2023-07-20T05:28:10;4.90;;;2.40;;
14094;SDS011;18096;48.142;16.290;2023-07-20T05:30:36;3.30;;;3.00;;
14094;SDS011;18096;48.142;16.290;2023-07-20T05:33:01;4.67;;;3.47;;
14094;SDS011;18096;48.142;16.290;2023-07-20T05:35:27;7.07;;;3.25;;
14094;SDS011;18096;48.142;16.290;2023-07-20T05:37:53;8.63;;;3.20;;
14094;SDS011;18096;48.142;16.290;2023-07-20T05:40:18;4.57;;;3.40;;
14094;SDS011;18096;48.142;16.290;2023-07-20T05:42:47;5.10;;;2.95;;
14094;SDS011;18096;48.142;16.290;2023-07-20T05:45:16;4.30;;;2.72;;
14094;SDS011;18096;48.142;16.290;2023-07-20T05:47:42;3.43;;;3.10;;
14094;SDS011;18096;48.142;16.290;2023-07-20T05:50:08;5.22;;;2.70;;
14094;SDS011;18096;48.142;16.290;2023-07-20T05:52:34;4.68;;;2.80;;
14094;SDS011;18096;48.142;16.290;2023-07-20T05:55:00;3.23;;;2.90;;
14094;SDS011;18096;48.142;16.290;2023-07-20T05:57:26;7.75;;;2.90;;
14094;SDS011;18096;48.142;16.290;2023-07-20T05:59:51;3.63;;;2.50;;
14094;SDS011;18096;48.142;16.290;2023-07-20T06:02:17;2.40;;;2.20;;
14094;SDS011;18096;48.142;16.290;2023-07-20T06:04:42;2.72;;;2.50;;
14094;SDS011;18096;48.142;16.290;2023-07-20T06:07:08;5.23;;;2.80;;
14094;SDS011;18096;48.142;16.290;2023-07-20T06:09:34;5.20;;;2.60;;
14094;SDS011;18096;48.142;16.290;2023-07-20T06:12:00;4.43;;;2.45;;
14094;SDS011;18096;48.142;16.290;2023-07-20T06:14:25;3.92;;;2.60;;
14094;SDS011;18096;48.142;16.290;2023-07-20T06:16:51;3.55;;;2.85;;
14094;SDS011;18096;48.142;16.290;2023-07-20T06:19:17;7.90;;;2.30;;
14094;SDS011;18096;48.142;16.290;2023-07-20T06:21:43;4.00;;;2.42;;
14094;SDS011;18096;48.142;16.290;2023-07-20T06:24:08;2.67;;;2.27;;
14094;SDS011;18096;48.142;16.290;2023-07-20T06:26:34;3.95;;;2.40;;
14094;SDS011;18096;48.142;16.290;2023-07-20T06:29:04;3.78;;;2.50;;
14094;SDS011;18096;48.142;16.290;2023-07-20T06:31:31;2.70;;;2.50;;
14094;SDS011;18096;48.142;16.290;2023-07-20T06:34:00;8.30;;;2.65;;
14094;SDS011;18096;48.142;16.290;2023-07-20T06:36:26;4.57;;;2.47;;
14094;SDS011;18096;48.142;16.290;2023-07-20T06:38:51;6.53;;;2.75;;
14094;SDS011;18096;48.142;16.290;2023-07-20T06:41:17;3.67;;;2.40;;
14094;SDS011;18096;48.142;16.290;2023-07-20T06:43:44;3.70;;;2.30;;
14094;SDS011;18096;48.142;16.290;2023-07-20T06:46:10;3.50;;;2.80;;
14094;SDS011;18096;48.142;16.290;2023-07-20T06:48:35;2.70;;;2.50;;
14094;SDS011;18096;48.142;16.290;2023-07-20T06:51:01;4.30;;;2.60;;
14094;SDS011;18096;48.142;16.290;2023-07-20T06:53:27;4.00;;;2.40;;
14094;SDS011;18096;48.142;16.290;2023-07-20T06:55:53;5.47;;;3.03;;
14094;SDS011;18096;48.142;16.290;2023-07-20T06:58:19;5.30;;;2.70;;
14094;SDS011;18096;48.142;16.290;2023-07-20T07:00:46;2.97;;;2.60;;
14094;SDS011;18096;48.142;16.290;2023-07-20T07:03:12;3.40;;;3.00;;
14094;SDS011;18096;48.142;16.290;2023-07-20T07:05:38;2.53;;;2.33;;
14094;SDS011;18096;48.142;16.290;2023-07-20T07:08:06;3.70;;;2.88;;
14094;SDS011;18096;48.142;16.290;2023-07-20T07:10:33;3.63;;;2.60;;
14094;SDS011;18096;48.142;16.290;2023-07-20T07:13:00;2.80;;;2.60;;
14094;SDS011;18096;48.142;16.290;2023-07-20T07:15:26;2.97;;;2.50;;
14094;SDS011;18096;48.142;16.290;2023-07-20T07:17:52;3.30;;;3.00;;
14094;SDS011;18096;48.142;16.290;2023-07-20T07:20:18;4.28;;;2.70;;
14094;SDS011;18096;48.142;16.290;2023-07-20T07:22:44;4.10;;;2.50;;
14094;SDS011;18096;48.142;16.290;2023-07-20T07:25:10;2.53;;;2.33;;
14094;SDS011;18096;48.142;16.290;2023-07-20T07:27:36;4.80;;;2.90;;
14094;SDS011;18096;48.142;16.290;2023-07-20T07:30:04;5.97;;;2.53;;
14094;SDS011;18096;48.142;16.290;2023-07-20T07:32:30;3.35;;;2.50;;
14094;SDS011;18096;48.142;16.290;2023-07-20T07:34:56;3.17;;;2.50;;
14094;SDS011;18096;48.142;16.290;2023-07-20T07:37:23;6.60;;;2.88;;
14094;SDS011;18096;48.142;16.290;2023-07-20T07:39:49;8.32;;;2.60;;
14094;SDS011;18096;48.142;16.290;2023-07-20T07:42:15;4.68;;;2.58;;
14094;SDS011;18096;48.142;16.290;2023-07-20T07:44:40;3.42;;;2.55;;
14094;SDS011;18096;48.142;16.290;2023-07-20T07:47:06;4.63;;;2.70;;
14094;SDS011;18096;48.142;16.290;2023-07-20T07:49:32;4.60;;;2.85;;
14094;SDS011;18096;48.142;16.290;2023-07-20T07:51:58;4.50;;;2.77;;
14094;SDS011;18096;48.142;16.290;2023-07-20T07:54:23;5.80;;;3.00;;
14094;SDS011;18096;48.142;16.290;2023-07-20T07:56:49;3.20;;;2.80;;
14094;SDS011;18096;48.142;16.290;2023-07-20T07:59:16;5.45;;;2.85;;
14094;SDS011;18096;48.142;16.290;2023-07-20T08:01:42;4.53;;;2.90;;
14094;SDS011;18096;48.142;16.290;2023-07-20T08:04:07;10.32;;;3.17;;
14094;SDS011;18096;48.142;16.290;2023-07-20T08:06:33;6.00;;;2.73;;
14094;SDS011;18096;48.142;16.290;2023-07-20T08:08:59;7.15;;;3.08;;
14094;SDS011;18096;48.142;16.290;2023-07-20T08:11:25;2.75;;;2.55;;
14094;SDS011;18096;48.142;16.290;2023-07-20T08:13:50;2.63;;;2.33;;
14094;SDS011;18096;48.142;16.290;2023-07-20T08:16:16;5.20;;;2.70;;
14094;SDS011;18096;48.142;16.290;2023-07-20T08:18:41;2.83;;;2.50;;
14094;SDS011;18096;48.142;16.290;2023-07-20T08:21:08;2.80;;;2.60;;
14094;SDS011;18096;48.142;16.290;2023-07-20T08:23:34;3.63;;;2.40;;
14094;SDS011;18096;48.142;16.290;2023-07-20T08:25:59;4.03;;;2.80;;
14094;SDS011;18096;48.142;16.290;2023-07-20T08:28:26;7.25;;;2.80;;
14094;SDS011;18096;48.142;16.290;2023-07-20T08:30:52;3.00;;;2.67;;
14094;SDS011;18096;48.142;16.290;2023-07-20T08:33:18;2.47;;;2.28;;
14094;SDS011;18096;48.142;16.290;2023-07-20T08:35:45;3.10;;;2.30;;
14094;SDS011;18096;48.142;16.290;2023-07-20T08:38:11;3.20;;;2.45;;
14094;SDS011;18096;48.142;16.290;2023-07-20T08:40:41;2.70;;;2.42;;
14094;SDS011;18096;48.142;16.290;2023-07-20T08:43:10;3.37;;;2.30;;
14094;SDS011;18096;48.142;16.290;2023-07-20T08:45:37;2.70;;;2.50;;
14094;SDS011;18096;48.142;16.290;2023-07-20T08:48:05;3.25;;;2.30;;
14094;SDS011;18096;48.142;16.290;2023-07-20T08:50:31;4.40;;;2.40;;
14094;SDS011;18096;48.142;16.290;2023-07-20T08:52:57;3.60;;;2.00;;
14094;SDS011;18096;48.142;16.290;2023-07-20T08:55:28;5.20;;;2.50;;
14094;SDS011;18096;48.142;16.290;2023-07-20T08:57:54;3.67;;;2.30;;
14094;SDS011;18096;48.142;16.290;2023-07-20T09:00:21;6.95;;;2.53;;
14094;SDS011;18096;48.142;16.290;2023-07-20T09:02:49;2.83;;;2.40;;
14094;SDS011;18096;48.142;16.290;2023-07-20T09:05:17;12.80;;;2.60;;
14094;SDS011;18096;48.142;16.290;2023-07-20T09:07:43;3.38;;;2.50;;
14094;SDS011;18096;48.142;16.290;2023-07-20T09:10:08;2.00;;;1.90;;
14094;SDS011;18096;48.142;16.290;2023-07-20T09:12:35;8.00;;;2.60;;
14094;SDS011;18096;48.142;16.290;2023-07-20T09:15:03;4.70;;;2.35;;
14094;SDS011;18096;48.142;16.290;2023-07-20T09:17:29;2.35;;;2.17;;
14094;SDS011;18096;48.142;16.290;2023-07-20T09:19:55;3.30;;;2.55;;
14094;SDS011;18096;48.142;16.290;2023-07-20T09:22:21;3.60;;;2.27;;
14094;SDS011;18096;48.142;16.290;2023-07-20T09:24:46;2.55;;;2.10;;
14094;SDS011;18096;48.142;16.290;2023-07-20T09:27:12;3.15;;;1.95;;
14094;SDS011;18096;48.142;16.290;2023-07-20T09:29:50;3.80;;;2.00;;
14094;SDS011;18096;48.142;16.290;2023-07-20T09:32:20;3.00;;;2.00;;
14094;SDS011;18096;48.142;16.290;2023-07-20T09:34:47;2.83;;;2.10;;
14094;SDS011;18096;48.142;16.290;2023-07-20T09:37:19;2.50;;;2.05;;
14094;SDS011;18096;48.142;16.290;2023-07-20T09:39:46;1.83;;;1.73;;
14094;SDS011;18096;48.142;16.290;2023-07-20T09:42:12;5.15;;;1.88;;
14094;SDS011;18096;48.142;16.290;2023-07-20T09:44:38;4.43;;;2.30;;
14094;SDS011;18096;48.142;16.290;2023-07-20T09:47:05;3.17;;;2.33;;
14094;SDS011;18096;48.142;16.290;2023-07-20T09:49:31;3.10;;;2.00;;
14094;SDS011;18096;48.142;16.290;2023-07-20T09:51:57;2.53;;;2.30;;
14094;SDS011;18096;48.142;16.290;2023-07-20T09:54:25;2.40;;;2.20;;
14094;SDS011;18096;48.142;16.290;2023-07-20T09:56:52;2.30;;;2.10;;
14094;SDS011;18096;48.142;16.290;2023-07-20T09:59:19;2.00;;;1.90;;
14094;SDS011;18096;48.142;16.290;2023-07-20T10:01:44;2.33;;;2.00;;
14094;SDS011;18096;48.142;16.290;2023-07-20T10:04:12;4.72;;;2.42;;
14094;SDS011;18096;48.142;16.290;2023-07-20T10:06:42;3.42;;;1.90;;
14094;SDS011;18096;48.142;16.290;2023-07-20T10:09:10;4.60;;;2.15;;
14094;SDS011;18096;48.142;16.290;2023-07-20T10:11:37;4.78;;;2.20;;
14094;SDS011;18096;48.142;16.290;2023-07-20T10:14:08;3.22;;;1.80;;
14094;SDS011;18096;48.142;16.290;2023-07-20T10:16:39;2.10;;;2.00;;
14094;SDS011;18096;48.142;16.290;2023-07-20T10:22:15;2.08;;;1.85;;
14094;SDS011;18096;48.142;16.290;2023-07-20T10:24:45;1.70;;;1.60;;
14094;SDS011;18096;48.142;16.290;2023-07-20T10:27:13;2.70;;;1.90;;
14094;SDS011;18096;48.142;16.290;2023-07-20T10:29:40;2.90;;;2.23;;
14094;SDS011;18096;48.142;16.290;2023-07-20T10:32:06;3.40;;;2.28;;
14094;SDS011;18096;48.142;16.290;2023-07-20T10:34:33;2.80;;;1.58;;
14094;SDS011;18096;48.142;16.290;2023-07-20T10:36:59;2.60;;;2.00;;
14094;SDS011;18096;48.142;16.290;2023-07-20T10:39:25;5.28;;;2.10;;
14094;SDS011;18096;48.142;16.290;2023-07-20T10:42:14;4.68;;;2.17;;
14094;SDS011;18096;48.142;16.290;2023-07-20T10:44:40;2.20;;;2.10;;
14094;SDS011;18096;48.142;16.290;2023-07-20T10:47:09;2.23;;;2.03;;
14094;SDS011;18096;48.142;16.290;2023-07-20T10:49:38;5.10;;;2.10;;
14094;SDS011;18096;48.142;16.290;2023-07-20T10:52:37;6.60;;;2.00;;
14094;SDS011;18096;48.142;16.290;2023-07-20T10:55:18;5.10;;;2.22;;
14094;SDS011;18096;48.142;16.290;2023-07-20T10:58:06;3.60;;;1.90;;
14094;SDS011;18096;48.142;16.290;2023-07-20T11:00:33;2.30;;;1.80;;
14094;SDS011;18096;48.142;16.290;2023-07-20T11:02:59;3.47;;;1.90;;
14094;SDS011;18096;48.142;16.290;2023-07-20T11:08:03;6.05;;;2.20;;
14094;SDS011;18096;48.142;16.290;2023-07-20T11:10:30;6.03;;;1.95;;
14094;SDS011;18096;48.142;16.290;2023-07-20T11:13:15;13.50;;;2.10;;
14094;SDS011;18096;48.142;16.290;2023-07-20T11:18:12;2.25;;;1.52;;
14094;SDS011;18096;48.142;16.290;2023-07-20T11:20:38;4.97;;;1.92;;
14094;SDS011;18096;48.142;16.290;2023-07-20T11:23:05;2.10;;;1.90;;
14094;SDS011;18096;48.142;16.290;2023-07-20T11:25:40;4.30;;;1.52;;
14094;SDS011;18096;48.142;16.290;2023-07-20T11:28:09;3.85;;;1.63;;
14094;SDS011;18096;48.142;16.290;2023-07-20T11:30:35;5.50;;;2.30;;
14094;SDS011;18096;48.142;16.290;2023-07-20T11:33:04;4.38;;;1.80;;
14094;SDS011;18096;48.142;16.290;2023-07-20T11:35:30;1.50;;;1.40;;
14094;SDS011;18096;48.142;16.290;2023-07-20T11:38:00;2.80;;;2.00;;
14094;SDS011;18096;48.142;16.290;2023-07-20T11:40:25;9.73;;;2.35;;
14094;SDS011;18096;48.142;16.290;2023-07-20T11:42:51;4.78;;;1.90;;
14094;SDS011;18096;48.142;16.290;2023-07-20T11:45:19;4.10;;;2.58;;
14094;SDS011;18096;48.142;16.290;2023-07-20T11:47:44;3.20;;;1.85;;
14094;SDS011;18096;48.142;16.290;2023-07-20T11:50:10;1.80;;;1.70;;
14094;SDS011;18096;48.142;16.290;2023-07-20T11:52:38;1.75;;;1.65;;
14094;SDS011;18096;48.142;16.290;2023-07-20T11:55:05;3.08;;;1.70;;
14094;SDS011;18096;48.142;16.290;2023-07-20T11:57:32;1.10;;;1.10;;
14094;SDS011;18096;48.142;16.290;2023-07-20T12:00:00;9.30;;;1.58;;
14094;SDS011;18096;48.142;16.290;2023-07-20T12:02:30;2.00;;;1.40;;
14094;SDS011;18096;48.142;16.290;2023-07-20T12:04:57;1.40;;;1.30;;
14094;SDS011;18096;48.142;16.290;2023-07-20T12:07:22;7.22;;;1.50;;
14094;SDS011;18096;48.142;16.290;2023-07-20T12:10:07;2.07;;;1.60;;
14094;SDS011;18096;48.142;16.290;2023-07-20T12:12:35;4.18;;;1.15;;
14094;SDS011;18096;48.142;16.290;2023-07-20T12:15:22;4.70;;;1.40;;
14094;SDS011;18096;48.142;16.290;2023-07-20T12:17:54;2.22;;;1.17;;
14094;SDS011;18096;48.142;16.290;2023-07-20T12:20:25;1.40;;;1.27;;
14094;SDS011;18096;48.142;16.290;2023-07-20T12:22:51;1.80;;;1.70;;
14094;SDS011;18096;48.142;16.290;2023-07-20T12:25:17;2.35;;;1.00;;
14094;SDS011;18096;48.142;16.290;2023-07-20T12:27:45;1.13;;;1.10;;
14094;SDS011;18096;48.142;16.290;2023-07-20T12:30:12;1.42;;;1.33;;
14094;SDS011;18096;48.142;16.290;2023-07-20T12:32:38;3.60;;;1.40;;
14094;SDS011;18096;48.142;16.290;2023-07-20T12:35:04;1.30;;;1.20;;
14094;SDS011;18096;48.142;16.290;2023-07-20T12:37:31;2.20;;;1.40;;
14094;SDS011;18096;48.142;16.290;2023-07-20T12:39:57;6.85;;;1.70;;
14094;SDS011;18096;48.142;16.290;2023-07-20T12:42:22;2.13;;;1.40;;
14094;SDS011;18096;48.142;16.290;2023-07-20T12:44:48;1.77;;;1.67;;
14094;SDS011;18096;48.142;16.290;2023-07-20T12:47:16;1.40;;;1.30;;
14094;SDS011;18096;48.142;16.290;2023-07-20T12:49:43;2.10;;;1.40;;
14094;SDS011;18096;48.142;16.290;2023-07-20T12:52:10;3.00;;;1.92;;
14094;SDS011;18096;48.142;16.290;2023-07-20T12:54:36;2.28;;;1.50;;
14094;SDS011;18096;48.142;16.290;2023-07-20T12:57:01;3.10;;;1.23;;
14094;SDS011;18096;48.142;16.290;2023-07-20T12:59:28;1.50;;;1.40;;
14094;SDS011;18096;48.142;16.290;2023-07-20T13:01:54;1.30;;;1.20;;
14094;SDS011;18096;48.142;16.290;2023-07-20T13:04:19;4.03;;;1.60;;
14094;SDS011;18096;48.142;16.290;2023-07-20T13:06:45;3.88;;;1.40;;
14094;SDS011;18096;48.142;16.290;2023-07-20T13:09:11;6.63;;;1.40;;
14094;SDS011;18096;48.142;16.290;2023-07-20T13:11:36;6.20;;;1.30;;
14094;SDS011;18096;48.142;16.290;2023-07-20T13:14:02;1.90;;;1.70;;
14094;SDS011;18096;48.142;16.290;2023-07-20T13:16:28;1.80;;;1.30;;
14094;SDS011;18096;48.142;16.290;2023-07-20T13:18:53;2.57;;;1.30;;
14094;SDS011;18096;48.142;16.290;2023-07-20T13:21:19;1.80;;;1.42;;
14094;SDS011;18096;48.142;16.290;2023-07-20T13:23:47;2.53;;;1.53;;
14094;SDS011;18096;48.142;16.290;2023-07-20T13:26:13;10.05;;;1.45;;
14094;SDS011;18096;48.142;16.290;2023-07-20T13:28:42;1.80;;;1.40;;
14094;SDS011;18096;48.142;16.290;2023-07-20T13:31:08;1.30;;;1.20;;
14094;SDS011;18096;48.142;16.290;2023-07-20T13:33:36;1.80;;;1.30;;
14094;SDS011;18096;48.142;16.290;2023-07-20T13:36:02;3.90;;;1.50;;
14094;SDS011;18096;48.142;16.290;2023-07-20T13:38:30;2.50;;;1.80;;
14094;SDS011;18096;48.142;16.290;2023-07-20T13:40:56;2.08;;;1.55;;
14094;SDS011;18096;48.142;16.290;2023-07-20T13:43:22;2.40;;;1.70;;
14094;SDS011;18096;48.142;16.290;2023-07-20T13:45:48;2.60;;;1.60;;
14094;SDS011;18096;48.142;16.290;2023-07-20T13:48:13;3.60;;;1.70;;
14094;SDS011;18096;48.142;16.290;2023-07-20T13:50:40;2.28;;;1.83;;
14094;SDS011;18096;48.142;16.290;2023-07-20T13:53:05;1.45;;;1.35;;
14094;SDS011;18096;48.142;16.290;2023-07-20T13:55:31;1.50;;;1.27;;
14094;SDS011;18096;48.142;16.290;2023-07-20T13:57:58;3.80;;;1.45;;
14094;SDS011;18096;48.142;16.290;2023-07-20T14:00:24;2.80;;;1.80;;
14094;SDS011;18096;48.142;16.290;2023-07-20T14:02:51;2.50;;;2.10;;
14094;SDS011;18096;48.142;16.290;2023-07-20T14:05:18;2.33;;;1.45;;
14094;SDS011;18096;48.142;16.290;2023-07-20T14:07:44;4.83;;;2.00;;
14094;SDS011;18096;48.142;16.290;2023-07-20T14:10:10;3.83;;;1.60;;
14094;SDS011;18096;48.142;16.290;2023-07-20T14:12:35;6.60;;;1.60;;
14094;SDS011;18096;48.142;16.290;2023-07-20T14:15:01;1.90;;;1.80;;
14094;SDS011;18096;48.142;16.290;2023-07-20T14:17:27;2.83;;;1.30;;
14094;SDS011;18096;48.142;16.290;2023-07-20T14:19:53;1.80;;;1.70;;
14094;SDS011;18096;48.142;16.290;2023-07-20T14:22:18;8.20;;;2.70;;
14094;SDS011;18096;48.142;16.290;2023-07-20T14:24:44;5.87;;;1.80;;
14094;SDS011;18096;48.142;16.290;2023-07-20T14:27:09;5.40;;;1.70;;
14094;SDS011;18096;48.142;16.290;2023-07-20T14:29:36;2.83;;;1.33;;
14094;SDS011;18096;48.142;16.290;2023-07-20T14:32:01;10.40;;;2.20;;
14094;SDS011;18096;48.142;16.290;2023-07-20T14:34:28;3.70;;;1.30;;
14094;SDS011;18096;48.142;16.290;2023-07-20T14:36:54;2.80;;;1.50;;
14094;SDS011;18096;48.142;16.290;2023-07-20T14:39:20;4.30;;;1.30;;
14094;SDS011;18096;48.142;16.290;2023-07-20T14:41:45;2.60;;;1.50;;
14094;SDS011;18096;48.142;16.290;2023-07-20T14:44:11;2.80;;;1.80;;
14094;SDS011;18096;48.142;16.290;2023-07-20T14:46:37;3.97;;;1.90;;